Time;durP1;ratioP1;P1;durP2;ratioP2;P2;SDS_P1;SDS_P2;PMS_P1;PMS_P2;Temp;Humidity;BMP_temperature;BMP_pressure;BME280_temperature;BME280_humidity;BME280_pressure;Samples;Min_cycle;Max_cycle;Signal;HPM_P1;HPM_P2
2022/10/03 00:02:26;;;;;;;5.82;1.10;;;;;;;;;;5036190;28;20025;-78
2022/10/03 00:05:19;;;;;;;2.17;1.25;;;;;;;;;;5018505;28;20021;-78
2022/10/03 00:07:55;;;;;;;3.10;1.30;;;;;;;;;;5003267;28;20120;-78
2022/10/03 00:10:30;;;;;;;2.15;1.20;;;;;;;;;;5018429;28;20021;-80
2022/10/03 00:13:04;;;;;;;2.15;1.13;;;;;;;;;;5018029;28;20033;-78
2022/10/03 00:15:48;;;;;;;2.17;0.95;;;;;;;;;;5017921;28;20482;-78
2022/10/03 00:18:28;;;;;;;3.42;1.02;;;;;;;;;;5017680;28;20029;-77
2022/10/03 00:21:18;;;;;;;2.63;1.15;;;;;;;;;;5017008;28;20060;-76
2022/10/03 00:24:03;;;;;;;3.33;1.30;;;;;;;;;;5017665;28;20036;-78
2022/10/03 00:26:29;;;;;;;1.85;0.90;;;;;;;;;;5017614;28;20379;-78
2022/10/03 00:29:01;;;;;;;2.92;1.17;;;;;;;;;;5035514;28;20029;-78
2022/10/03 00:31:46;;;;;;;2.70;1.10;;;;;;;;;;5017895;28;20505;-78
2022/10/03 00:34:25;;;;;;;4.47;1.30;;;;;;;;;;5017902;28;20025;-80
2022/10/03 00:37:10;;;;;;;2.60;1.15;;;;;;;;;;5017951;28;20120;-79
2022/10/03 00:39:39;;;;;;;4.30;1.20;;;;;;;;;;5017720;28;20398;-78
2022/10/03 00:42:06;;;;;;;3.05;1.20;;;;;;;;;;5035404;28;20107;-78
2022/10/03 00:44:47;;;;;;;1.95;1.00;;;;;;;;;;5017595;28;20421;-79
2022/10/03 00:47:23;;;;;;;2.95;1.30;;;;;;;;;;5016498;28;20440;-78
2022/10/03 00:50:07;;;;;;;4.05;1.50;;;;;;;;;;5035125;28;20041;-78
2022/10/03 00:52:39;;;;;;;3.92;1.40;;;;;;;;;;5017586;28;20029;-78
2022/10/03 00:55:11;;;;;;;4.88;1.52;;;;;;;;;;5017323;28;20041;-78
2022/10/03 00:57:37;;;;;;;3.63;1.45;;;;;;;;;;5017181;28;20040;-78
2022/10/03 01:00:18;;;;;;;2.67;1.40;;;;;;;;;;5017386;28;20056;-79
2022/10/03 01:03:03;;;;;;;4.78;1.48;;;;;;;;;;5017314;28;20071;-79
2022/10/03 01:05:30;;;;;;;5.28;1.17;;;;;;;;;;5017108;28;20078;-78
2022/10/03 01:08:05;;;;;;;2.17;1.30;;;;;;;;;;5034982;28;20459;-78
2022/10/03 01:10:42;;;;;;;3.25;1.23;;;;;;;;;;5017187;28;20487;-78
2022/10/03 01:13:11;;;;;;;4.07;1.10;;;;;;;;;;5017200;28;20025;-79
2022/10/03 01:15:37;;;;;;;3.13;1.30;;;;;;;;;;5034900;28;20025;-78
2022/10/03 01:18:12;;;;;;;2.72;1.00;;;;;;;;;;5016957;28;20083;-78
2022/10/03 01:20:42;;;;;;;3.83;1.38;;;;;;;;;;5016790;28;20060;-78
2022/10/03 01:23:27;;;;;;;2.60;1.45;;;;;;;;;;5016993;28;20386;-79
2022/10/03 01:26:01;;;;;;;4.47;1.40;;;;;;;;;;5034645;28;20032;-78
2022/10/03 01:31:19;;;;;;;4.30;1.40;;;;;;;;;;5034804;28;20087;-78
2022/10/03 01:33:48;;;;;;;4.00;1.45;;;;;;;;;;5034599;28;20040;-79
2022/10/03 01:36:21;;;;;;;3.08;1.38;;;;;;;;;;5016481;28;20064;-78
2022/10/03 01:39:01;;;;;;;5.13;1.67;;;;;;;;;;5016746;28;20033;-78
2022/10/03 01:41:34;;;;;;;4.45;1.50;;;;;;;;;;5034362;28;20256;-78
2022/10/03 01:44:12;;;;;;;5.30;1.25;;;;;;;;;;5016758;28;20029;-78
2022/10/03 01:46:39;;;;;;;3.72;1.20;;;;;;;;;;5016546;28;20036;-79
2022/10/03 01:49:08;;;;;;;4.25;1.63;;;;;;;;;;5016273;28;20018;-78
2022/10/03 01:51:43;;;;;;;3.40;1.45;;;;;;;;;;5016506;28;20079;-79
2022/10/03 01:54:25;;;;;;;3.08;1.30;;;;;;;;;;5016271;28;20501;-76
2022/10/03 01:56:51;;;;;;;2.88;1.40;;;;;;;;;;5016029;28;20129;-78
2022/10/03 01:59:19;;;;;;;3.10;1.33;;;;;;;;;;5016237;28;20041;-78
2022/10/03 02:02:05;;;;;;;3.03;1.50;;;;;;;;;;5015897;28;20386;-78
2022/10/03 02:04:31;;;;;;;4.28;1.92;;;;;;;;;;5016376;28;20025;-78
2022/10/03 02:07:07;;;;;;;5.93;1.80;;;;;;;;;;5033885;28;20022;-78
2022/10/03 02:09:48;;;;;;;5.90;1.67;;;;;;;;;;5015993;28;20040;-79
2022/10/03 02:12:24;;;;;;;2.90;1.38;;;;;;;;;;5016046;28;20029;-78
2022/10/03 02:15:00;;;;;;;4.63;1.40;;;;;;;;;;5016179;28;20122;-78
2022/10/03 02:17:30;;;;;;;4.65;1.75;;;;;;;;;;5033578;28;20069;-79
2022/10/03 02:20:01;;;;;;;5.63;1.60;;;;;;;;;;5015861;28;20025;-78
2022/10/03 02:22:33;;;;;;;8.35;1.67;;;;;;;;;;5016026;28;20021;-79
2022/10/03 02:25:15;;;;;;;2.83;1.48;;;;;;;;;;5015979;28;20025;-78
2022/10/03 02:27:53;;;;;;;3.63;1.52;;;;;;;;;;5015961;28;20047;-79
2022/10/03 02:30:24;;;;;;;6.68;1.70;;;;;;;;;;5015669;28;20485;-78
2022/10/03 02:32:57;;;;;;;3.38;1.50;;;;;;;;;;5015769;28;20053;-79
2022/10/03 02:35:23;;;;;;;3.85;1.40;;;;;;;;;;5015780;28;20025;-79
2022/10/03 02:37:55;;;;;;;4.40;2.28;;;;;;;;;;5015654;28;20037;-79
2022/10/03 02:40:35;;;;;;;3.50;1.70;;;;;;;;;;5015637;28;20486;-77
2022/10/03 02:43:04;;;;;;;2.38;1.30;;;;;;;;;;5015463;28;20033;-78
2022/10/03 02:45:36;;;;;;;6.03;1.92;;;;;;;;;;5015622;28;20479;-79
2022/10/03 02:48:32;;;;;;;5.63;1.45;;;;;;;;;;5015576;28;20467;-78
2022/10/03 02:51:16;;;;;;;4.72;1.55;;;;;;;;;;4980517;28;20443;-78
2022/10/03 02:53:55;;;;;;;5.28;1.83;;;;;;;;;;5015356;28;20036;-79
2022/10/03 02:56:24;;;;;;;3.05;1.45;;;;;;;;;;5015031;28;20054;-78
2022/10/03 02:59:09;;;;;;;5.22;1.83;;;;;;;;;;5015279;28;20486;-79
2022/10/03 03:01:48;;;;;;;2.63;1.60;;;;;;;;;;5015436;28;20025;-78
2022/10/03 03:04:20;;;;;;;5.65;1.77;;;;;;;;;;5015333;28;20500;-78
2022/10/03 03:06:52;;;;;;;4.43;1.90;;;;;;;;;;5015188;28;20163;-79
2022/10/03 03:09:36;;;;;;;3.47;1.60;;;;;;;;;;5015928;28;20033;-79
2022/10/03 03:12:09;;;;;;;3.33;1.60;;;;;;;;;;5019472;28;20483;-79
2022/10/03 03:14:56;;;;;;;8.03;1.70;;;;;;;;;;5019476;28;20471;-78
2022/10/03 03:17:25;;;;;;;4.60;1.90;;;;;;;;;;5019192;28;20086;-79
2022/10/03 03:20:14;;;;;;;6.13;1.85;;;;;;;;;;5019066;28;20052;-79
2022/10/03 03:22:43;;;;;;;4.53;1.50;;;;;;;;;;5014097;28;20410;-79
2022/10/03 03:25:21;;;;;;;3.33;1.45;;;;;;;;;;5019094;28;20475;-78
2022/10/03 03:27:57;;;;;;;7.00;1.73;;;;;;;;;;5019195;28;20033;-79
2022/10/03 03:30:26;;;;;;;4.40;1.52;;;;;;;;;;5019093;28;20362;-79
2022/10/03 03:32:57;;;;;;;3.42;1.40;;;;;;;;;;5018787;28;20780;-79
2022/10/03 03:35:23;;;;;;;3.63;1.45;;;;;;;;;;5018984;28;20040;-79
2022/10/03 03:37:56;;;;;;;6.05;1.55;;;;;;;;;;5036699;28;20550;-80
2022/10/03 03:40:41;;;;;;;4.23;1.47;;;;;;;;;;5018882;28;20478;-79
2022/10/03 03:43:08;;;;;;;4.93;1.20;;;;;;;;;;5018634;28;20766;-79
2022/10/03 03:45:53;;;;;;;2.58;1.30;;;;;;;;;;5018776;28;20536;-79
2022/10/03 03:48:21;;;;;;;5.32;1.15;;;;;;;;;;5018711;28;20116;-79
2022/10/03 03:50:51;;;;;;;5.70;1.42;;;;;;;;;;5018657;28;20055;-79
2022/10/03 03:53:39;;;;;;;5.28;1.65;;;;;;;;;;5036431;28;20045;-79
2022/10/03 03:56:16;;;;;;;4.53;1.20;;;;;;;;;;5018455;28;20085;-79
2022/10/03 03:59:01;;;;;;;4.72;1.35;;;;;;;;;;5018289;28;20111;-79
2022/10/03 04:01:30;;;;;;;4.07;0.95;;;;;;;;;;5018465;28;20025;-79
2022/10/03 04:04:06;;;;;;;7.18;1.27;;;;;;;;;;5018465;28;20030;-79
2022/10/03 04:06:55;;;;;;;8.40;1.17;;;;;;;;;;5035975;28;20036;-79
2022/10/03 04:09:30;;;;;;;5.45;1.27;;;;;;;;;;5018401;28;20493;-79
2022/10/03 04:12:06;;;;;;;4.53;1.48;;;;;;;;;;5018311;28;20037;-79
2022/10/03 04:14:32;;;;;;;6.63;1.25;;;;;;;;;;5018169;28;20021;-79
2022/10/03 04:20:02;;;;;;;2.40;1.00;;;;;;;;;;5036262;28;20402;-79
2022/10/03 04:22:29;;;;;;;4.78;1.35;;;;;;;;;;5017686;28;20064;-78
2022/10/03 04:24:58;;;;;;;5.40;1.30;;;;;;;;;;5017931;28;20406;-77
2022/10/03 04:27:33;;;;;;;3.85;1.25;;;;;;;;;;5017866;28;20057;-80
2022/10/03 04:30:29;;;;;;;4.40;1.30;;;;;;;;;;5017908;28;20036;-79
2022/10/03 04:33:07;;;;;;;2.95;1.30;;;;;;;;;;5009340;28;20048;-78
2022/10/03 04:35:54;;;;;;;6.32;1.13;;;;;;;;;;5017725;28;20030;-78
2022/10/03 04:38:23;;;;;;;3.97;1.55;;;;;;;;;;4997544;28;20621;-79
2022/10/03 04:40:49;;;;;;;6.78;1.52;;;;;;;;;;5017882;28;20033;-79
2022/10/03 04:43:19;;;;;;;4.38;1.27;;;;;;;;;;5017601;28;20521;-79
2022/10/03 04:45:45;;;;;;;4.82;1.63;;;;;;;;;;5017693;28;20030;-79
2022/10/03 04:48:32;;;;;;;3.30;1.33;;;;;;;;;;5017656;28;20056;-79
2022/10/03 04:51:07;;;;;;;8.23;1.63;;;;;;;;;;5017364;28;20085;-79
2022/10/03 04:53:46;;;;;;;2.95;1.05;;;;;;;;;;5017493;28;20043;-79
2022/10/03 04:56:12;;;;;;;3.88;1.30;;;;;;;;;;5017144;28;20060;-79
2022/10/03 04:58:38;;;;;;;4.95;1.40;;;;;;;;;;5017278;28;20041;-79
2022/10/03 05:01:23;;;;;;;7.53;1.75;;;;;;;;;;5017384;28;20026;-79
2022/10/03 05:04:09;;;;;;;3.53;1.33;;;;;;;;;;5035118;28;20028;-81
2022/10/03 05:06:35;;;;;;;5.43;1.35;;;;;;;;;;5017609;28;20017;-81
2022/10/03 05:09:01;;;;;;;4.20;1.33;;;;;;;;;;5034926;23;20057;-80
2022/10/03 05:11:36;;;;;;;8.15;1.98;;;;;;;;;;4998756;28;20069;-82
2022/10/03 05:14:19;;;;;;;5.88;1.65;;;;;;;;;;5008239;28;20030;-80
2022/10/03 05:16:53;;;;;;;6.22;1.40;;;;;;;;;;4993663;28;20038;-81
2022/10/03 05:19:40;;;;;;;2.78;1.02;;;;;;;;;;5011062;28;20038;-81
2022/10/03 05:22:15;;;;;;;6.13;1.50;;;;;;;;;;4996905;28;20378;-81
2022/10/03 05:24:44;;;;;;;4.93;1.48;;;;;;;;;;5015951;28;20030;-80
2022/10/03 05:27:10;;;;;;;8.27;1.83;;;;;;;;;;4999502;28;20030;-81
2022/10/03 05:29:57;;;;;;;5.10;1.77;;;;;;;;;;5012644;28;20033;-80
2022/10/03 05:32:27;;;;;;;8.10;1.35;;;;;;;;;;4995667;28;20026;-81
2022/10/03 05:35:12;;;;;;;5.95;1.55;;;;;;;;;;5011986;28;20037;-81
2022/10/03 05:37:45;;;;;;;6.75;1.75;;;;;;;;;;5015986;28;20038;-81
2022/10/03 05:40:23;;;;;;;9.00;1.80;;;;;;;;;;5010776;28;20038;-82
2022/10/03 05:42:52;;;;;;;5.13;1.63;;;;;;;;;;4993655;28;20034;-84
2022/10/03 05:45:24;;;;;;;10.25;2.00;;;;;;;;;;4994675;28;20026;-85
2022/10/03 05:48:09;;;;;;;8.15;1.60;;;;;;;;;;5004120;28;20458;-82
2022/10/03 05:50:41;;;;;;;7.82;1.77;;;;;;;;;;5029737;28;20034;-80
2022/10/03 05:53:16;;;;;;;3.80;1.45;;;;;;;;;;5029916;28;20467;-82
2022/10/03 05:55:45;;;;;;;7.10;1.60;;;;;;;;;;5020155;28;20121;-84
2022/10/03 05:58:30;;;;;;;7.65;1.50;;;;;;;;;;4994083;28;20077;-80
2022/10/03 06:01:08;;;;;;;5.03;1.90;;;;;;;;;;4994560;28;20041;-83
2022/10/03 06:03:40;;;;;;;7.57;1.90;;;;;;;;;;4995129;28;20102;-83
2022/10/03 06:06:19;;;;;;;7.78;1.38;;;;;;;;;;4994364;28;20096;-83
2022/10/03 06:09:23;;;;;;;5.03;1.65;;;;;;;;;;4993426;28;20042;-83
2022/10/03 06:11:49;;;;;;;;;;;;;;;;;;4992462;28;20088;-84
2022/10/03 06:14:24;;;;;;;6.38;1.40;;;;;;;;;;4994265;28;19909;-82
2022/10/03 06:16:56;;;;;;;4.95;1.38;;;;;;;;;;4993401;28;20113;-80
2022/10/03 06:19:34;;;;;;;8.27;1.55;;;;;;;;;;4993665;28;20038;-87
2022/10/03 06:22:19;;;;;;;9.02;1.60;;;;;;;;;;4994617;28;20030;-88
2022/10/03 06:25:00;;;;;;;3.85;1.30;;;;;;;;;;4996294;28;20034;-81
2022/10/03 06:27:45;;;;;;;6.35;1.70;;;;;;;;;;4994640;28;20073;-83
2022/10/03 06:30:14;;;;;;;7.95;1.83;;;;;;;;;;4994420;28;20030;-81
2022/10/03 06:32:58;;;;;;;6.45;1.38;;;;;;;;;;4995362;28;20106;-79
2022/10/03 06:35:31;;;;;;;5.50;1.58;;;;;;;;;;4995964;28;20109;-80
2022/10/03 06:38:15;;;;;;;4.78;1.20;;;;;;;;;;5036640;28;20026;-80
2022/10/03 06:40:41;;;;;;;5.07;1.58;;;;;;;;;;5032330;28;20030;-83
2022/10/03 06:43:23;;;;;;;7.63;1.55;;;;;;;;;;5029910;28;20072;-85
2022/10/03 06:46:11;;;;;;;3.40;1.15;;;;;;;;;;5014651;28;20549;-82
2022/10/03 06:48:49;;;;;;;5.97;1.20;;;;;;;;;;5030007;28;20026;-80
2022/10/03 06:51:42;;;;;;;4.10;1.02;;;;;;;;;;5014421;28;20088;-86
2022/10/03 06:54:40;;;;;;;5.20;1.20;;;;;;;;;;5014165;28;20434;-85
2022/10/03 06:57:06;;;;;;;3.33;1.33;;;;;;;;;;5029018;28;20402;-79
2022/10/03 06:59:55;;;;;;;5.53;1.15;;;;;;;;;;5013942;28;20033;-80
2022/10/03 07:02:24;;;;;;;10.02;1.45;;;;;;;;;;5010200;28;20034;-78
2022/10/03 07:04:59;;;;;;;6.53;1.55;;;;;;;;;;5028439;28;20030;-81
2022/10/03 07:07:44;;;;;;;3.85;1.13;;;;;;;;;;5028078;28;20496;-82
2022/10/03 07:10:28;;;;;;;7.07;1.48;;;;;;;;;;5028304;28;20188;-79
2022/10/03 07:13:10;;;;;;;4.93;1.40;;;;;;;;;;5028706;28;20501;-78
2022/10/03 07:16:07;;;;;;;6.13;1.33;;;;;;;;;;5028792;28;20034;-78
2022/10/03 07:18:32;;;;;;;;;;;;;;;;;;5005569;28;20092;-91
2022/10/03 07:21:24;;;;;;;3.53;1.40;;;;;;;;;;5032950;28;19928;-92
2022/10/03 07:24:28;;;;;;;5.07;1.50;;;;;;;;;;5031763;28;20038;-92
2022/10/03 08:10:15;;;;;;;;;;;;;;;;;;5018262;28;20070;-92
2022/10/03 08:13:04;;;;;;;6.80;1.40;;;;;;;;;;5017962;28;19905;-91
2022/10/03 08:15:43;;;;;;;5.93;1.30;;;;;;;;;;5019175;28;20022;-91
2022/10/03 08:18:28;;;;;;;5.82;1.65;;;;;;;;;;5018561;28;20478;-93
2022/10/03 08:21:13;;;;;;;6.32;1.60;;;;;;;;;;5018078;28;20030;-92
2022/10/03 08:35:20;;;;;;;3.40;1.25;;;;;;;;;;5108854;22;20057;-90
2022/10/03 08:38:05;;;;;;;6.40;1.17;;;;;;;;;;5063312;28;20039;-91
2022/10/03 08:40:56;;;;;;;5.13;1.30;;;;;;;;;;5058513;28;20104;-92
2022/10/03 08:43:43;;;;;;;2.40;0.90;;;;;;;;;;5058195;28;20470;-93
2022/10/03 08:46:37;;;;;;;4.63;1.25;;;;;;;;;;5060497;28;20029;-92
2022/10/03 08:52:47;;;;;;;;;;;;;;;;;;;;;
2022/10/03 09:14:54;;;;;;;6.75;1.17;;;;;;;;;;5631982;22;20054;-91
2022/10/03 09:17:20;;;;;;;3.78;1.40;;;;;;;;;;5002187;28;20026;-91
2022/10/03 16:46:38;;;;;;;5.10;1.17;;;;;;;;;;5046204;23;20057;-80
2022/10/03 16:52:34;;;;;;;10.75;2.70;;;;;;;;;;4886448;29;20123;-82
2022/10/03 16:55:03;;;;;;;4.28;1.40;;;;;;;;;;4951323;28;20493;-81
2022/10/03 16:57:40;;;;;;;4.72;1.98;;;;;;;;;;4968943;28;20045;-83
2022/10/03 17:00:12;;;;;;;5.47;2.10;;;;;;;;;;4969233;28;20193;-82
2022/10/03 17:02:39;;;;;;;2.87;1.53;;;;;;;;;;4960925;28;20121;-83
2022/10/03 17:05:09;;;;;;;5.10;1.55;;;;;;;;;;4959214;28;20281;-83
2022/10/03 17:07:37;;;;;;;7.40;2.10;;;;;;;;;;4969571;28;20026;-78
2022/10/03 17:10:05;;;;;;;6.57;1.98;;;;;;;;;;4958759;28;20031;-79
2022/10/03 17:12:38;;;;;;;6.18;1.80;;;;;;;;;;4976249;28;20424;-77
2022/10/03 17:15:05;;;;;;;5.15;1.50;;;;;;;;;;4986545;28;20034;-79
2022/10/03 17:17:45;;;;;;;4.38;1.63;;;;;;;;;;4976084;28;20033;-78
2022/10/03 17:20:14;;;;;;;4.53;1.52;;;;;;;;;;4985901;28;20132;-78
2022/10/03 17:22:43;;;;;;;2.92;1.55;;;;;;;;;;4969952;28;20050;-78
2022/10/03 17:25:18;;;;;;;4.00;1.58;;;;;;;;;;4958482;28;20117;-79
2022/10/03 17:27:46;;;;;;;6.68;1.70;;;;;;;;;;4963346;28;20030;-80
2022/10/03 17:30:51;;;;;;;3.25;1.38;;;;;;;;;;4972233;28;20369;-77
2022/10/03 17:33:23;;;;;;;5.00;1.40;;;;;;;;;;4897522;29;20581;-80
2022/10/03 17:36:03;;;;;;;3.28;1.30;;;;;;;;;;4877384;29;20112;-79
2022/10/03 17:38:49;;;;;;;3.25;1.42;;;;;;;;;;4921284;28;20047;-79
2022/10/03 17:41:19;;;;;;;5.93;1.55;;;;;;;;;;4971200;28;20165;-78
2022/10/03 17:44:06;;;;;;;5.32;1.40;;;;;;;;;;4965377;28;20030;-79
2022/10/03 17:46:44;;;;;;;6.05;2.33;;;;;;;;;;4944197;28;20047;-77
2022/10/03 17:49:30;;;;;;;5.95;2.22;;;;;;;;;;4957149;28;20498;-78
2022/10/03 17:51:57;;;;;;;5.30;1.77;;;;;;;;;;4957437;28;20022;-79
2022/10/03 17:54:32;;;;;;;6.10;1.73;;;;;;;;;;4957488;28;20469;-77
2022/10/03 17:57:04;;;;;;;4.82;1.30;;;;;;;;;;4957469;28;20512;-78
2022/10/03 17:59:33;;;;;;;4.45;1.35;;;;;;;;;;4957304;28;20043;-78
2022/10/03 18:02:13;;;;;;;3.45;1.00;;;;;;;;;;4957283;28;20027;-78
2022/10/03 18:04:40;;;;;;;2.85;1.38;;;;;;;;;;4974342;28;20038;-79
2022/10/03 18:07:23;;;;;;;2.85;1.30;;;;;;;;;;4957338;28;20023;-78
2022/10/03 18:09:51;;;;;;;2.83;1.37;;;;;;;;;;4957236;28;20125;-77
2022/10/03 18:12:30;;;;;;;6.45;1.10;;;;;;;;;;4957214;28;20031;-78
2022/10/03 18:15:15;;;;;;;3.72;0.90;;;;;;;;;;4962013;28;20023;-79
2022/10/03 18:17:55;;;;;;;5.97;1.35;;;;;;;;;;4968239;28;20031;-78
2022/10/03 18:20:27;;;;;;;5.07;1.58;;;;;;;;;;4959322;28;20467;-78
2022/10/03 18:23:02;;;;;;;3.22;1.08;;;;;;;;;;4969638;28;20041;-78
2022/10/03 18:26:03;;;;;;;3.17;0.88;;;;;;;;;;4976212;28;20088;-78
2022/10/03 18:28:48;;;;;;;1.92;0.90;;;;;;;;;;4976704;28;20037;-82
2022/10/03 18:31:18;;;;;;;4.80;1.27;;;;;;;;;;4976196;28;20495;-77
2022/10/03 18:33:49;;;;;;;5.60;1.25;;;;;;;;;;4975282;28;20483;-78
2022/10/03 18:36:26;;;;;;;5.43;1.27;;;;;;;;;;4984935;28;20021;-77
2022/10/03 18:38:57;;;;;;;6.43;1.70;;;;;;;;;;4967401;28;20061;-88
2022/10/03 18:41:24;;;;;;;4.43;1.08;;;;;;;;;;4987723;28;20050;-85
2022/10/03 18:43:57;;;;;;;3.13;1.20;;;;;;;;;;4977300;28;20037;-79
2022/10/03 18:47:06;;;;;;;6.32;1.27;;;;;;;;;;5093507;27;1761447;-80
2022/10/03 18:49:34;;;;;;;5.40;1.65;;;;;;;;;;5129552;28;20498;-80
2022/10/03 18:52:13;;;;;;;2.97;0.95;;;;;;;;;;5125803;28;20019;-78
2022/10/03 18:54:42;;;;;;;3.05;1.20;;;;;;;;;;5129828;28;20020;-78
2022/10/03 18:57:13;;;;;;;7.90;1.55;;;;;;;;;;5125206;28;20024;-77
2022/10/03 19:00:00;;;;;;;4.68;1.58;;;;;;;;;;5128273;28;20063;-78
2022/10/03 19:02:31;;;;;;;3.33;1.13;;;;;;;;;;5128819;28;20035;-78
2022/10/03 19:05:11;;;;;;;5.10;1.65;;;;;;;;;;5128047;28;20111;-77
2022/10/03 19:07:42;;;;;;;4.05;1.33;;;;;;;;;;5127305;28;20042;-78
2022/10/03 19:10:27;;;;;;;4.13;1.05;;;;;;;;;;5129012;28;20020;-79
2022/10/03 19:12:59;;;;;;;3.40;1.30;;;;;;;;;;5128969;28;20035;-79
2022/10/03 19:15:44;;;;;;;2.45;1.13;;;;;;;;;;5108675;28;20488;-77
2022/10/03 19:18:17;;;;;;;5.53;1.08;;;;;;;;;;5109029;28;20157;-79
2022/10/03 19:20:44;;;;;;;4.78;1.15;;;;;;;;;;5109178;28;20731;-79
2022/10/03 19:23:11;;;;;;;3.70;1.20;;;;;;;;;;5122427;28;20108;-80
2022/10/03 19:25:38;;;;;;;3.75;1.20;;;;;;;;;;5127914;28;20046;-83
2022/10/03 19:28:13;;;;;;;4.63;1.20;;;;;;;;;;5129329;28;20023;-84
2022/10/03 19:30:41;;;;;;;3.13;1.17;;;;;;;;;;5128957;28;20039;-86
2022/10/03 19:33:16;;;;;;;4.07;1.10;;;;;;;;;;5128984;28;20019;-78
2022/10/03 19:35:46;;;;;;;2.70;1.20;;;;;;;;;;5129402;28;20748;-82
2022/10/03 19:38:21;;;;;;;6.25;1.20;;;;;;;;;;5129465;28;20027;-76
2022/10/03 19:41:13;;;;;;;8.57;1.70;;;;;;;;;;5128652;28;20028;-76
2022/10/03 19:43:48;;;;;;;4.53;1.20;;;;;;;;;;5090679;28;20502;-77
2022/10/03 19:46:15;;;;;;;5.22;1.38;;;;;;;;;;5128358;28;20057;-82
2022/10/03 19:49:04;;;;;;;4.25;1.15;;;;;;;;;;5128631;28;20043;-82
2022/10/03 19:51:31;;;;;;;2.60;1.00;;;;;;;;;;5116156;28;20479;-82
2022/10/03 19:53:57;;;;;;;3.60;0.85;;;;;;;;;;5129288;28;20085;-82
2022/10/03 19:56:24;;;;;;;6.78;1.25;;;;;;;;;;5127646;28;20030;-76
2022/10/03 19:59:05;;;;;;;4.90;0.93;;;;;;;;;;5114602;28;20062;-84
2022/10/03 20:01:43;;;;;;;2.78;0.90;;;;;;;;;;5116549;28;20383;-83
2022/10/03 20:04:09;;;;;;;3.22;1.40;;;;;;;;;;5114843;28;20115;-79
2022/10/03 20:06:39;;;;;;;4.22;1.02;;;;;;;;;;5115846;28;20077;-82
2022/10/03 20:09:25;;;;;;;5.45;1.20;;;;;;;;;;5115218;28;20020;-78
2022/10/03 20:11:55;;;;;;;3.28;0.80;;;;;;;;;;5115706;28;20024;-86
2022/10/03 20:14:25;;;;;;;7.03;1.00;;;;;;;;;;5115004;28;20495;-84
2022/10/03 20:16:54;;;;;;;4.07;0.98;;;;;;;;;;5115093;28;20023;-77
2022/10/03 20:19:23;;;;;;;2.70;0.80;;;;;;;;;;5115403;28;20114;-86
2022/10/03 20:21:56;;;;;;;4.97;1.35;;;;;;;;;;5115278;28;20024;-85
2022/10/03 20:24:33;;;;;;;3.05;1.05;;;;;;;;;;5114939;28;20038;-83
2022/10/03 20:27:20;;;;;;;4.15;1.17;;;;;;;;;;5115317;28;20047;-87
2022/10/03 20:29:58;;;;;;;3.47;1.23;;;;;;;;;;5098268;28;20034;-85
2022/10/03 20:32:24;;;;;;;5.47;1.40;;;;;;;;;;5115099;28;20076;-85
2022/10/03 20:34:53;;;;;;;2.33;1.08;;;;;;;;;;5115173;28;20028;-83
2022/10/03 20:37:22;;;;;;;3.95;1.23;;;;;;;;;;5115375;28;20026;-76
2022/10/03 20:39:49;;;;;;;3.20;1.38;;;;;;;;;;5114429;28;20020;-82
2022/10/03 20:42:25;;;;;;;3.03;1.30;;;;;;;;;;5115296;28;20391;-82
2022/10/03 20:45:00;;;;;;;4.75;1.75;;;;;;;;;;5115825;28;20073;-83
2022/10/03 20:47:36;;;;;;;3.05;1.20;;;;;;;;;;5074951;28;20053;-78
2022/10/03 20:50:09;;;;;;;4.95;1.27;;;;;;;;;;5074976;28;20151;-84
2022/10/03 20:52:35;;;;;;;6.10;1.63;;;;;;;;;;5075421;28;20024;-77
2022/10/03 20:55:08;;;;;;;5.93;1.45;;;;;;;;;;5074628;28;20023;-79
2022/10/03 20:57:49;;;;;;;6.70;1.73;;;;;;;;;;5073402;28;20029;-78
2022/10/03 21:00:15;;;;;;;4.40;1.42;;;;;;;;;;5072892;28;20020;-83
2022/10/03 21:03:01;;;;;;;7.60;1.20;;;;;;;;;;5073882;28;20366;-84
2022/10/03 21:05:43;;;;;;;3.70;1.48;;;;;;;;;;5074095;28;20113;-84
2022/10/03 21:08:12;;;;;;;7.53;1.40;;;;;;;;;;5073972;28;20107;-78
2022/10/03 21:10:40;;;;;;;3.95;1.30;;;;;;;;;;5073328;28;20033;-84
2022/10/03 21:13:08;;;;;;;5.78;1.20;;;;;;;;;;5073364;28;20024;-85
2022/10/03 21:15:40;;;;;;;4.85;1.88;;;;;;;;;;5074225;28;20042;-77
2022/10/03 21:18:07;;;;;;;9.38;1.73;;;;;;;;;;5073835;28;20024;-77
2022/10/03 21:20:43;;;;;;;9.35;1.55;;;;;;;;;;5073267;28;20060;-83
2022/10/03 21:23:15;;;;;;;4.28;1.45;;;;;;;;;;5073698;28;20024;-84
2022/10/03 21:25:42;;;;;;;5.88;1.73;;;;;;;;;;5072728;28;20033;-84
2022/10/03 21:28:21;;;;;;;4.18;1.20;;;;;;;;;;5072424;28;20025;-83
2022/10/03 21:31:00;;;;;;;3.58;1.13;;;;;;;;;;5072317;28;20024;-83
2022/10/03 21:33:30;;;;;;;3.67;1.52;;;;;;;;;;5072882;28;20104;-83
2022/10/03 21:36:04;;;;;;;6.88;1.20;;;;;;;;;;5072654;28;20051;-83
2022/10/03 21:38:33;;;;;;;3.90;1.20;;;;;;;;;;5073675;28;20017;-84
2022/10/03 21:41:18;;;;;;;2.75;1.10;;;;;;;;;;5073278;28;20111;-84
2022/10/03 21:44:03;;;;;;;4.57;1.33;;;;;;;;;;5072580;28;20028;-84
2022/10/03 21:46:38;;;;;;;5.68;1.20;;;;;;;;;;5099180;28;20150;-84
2022/10/03 21:49:14;;;;;;;2.67;1.10;;;;;;;;;;5113620;28;20027;-82
2022/10/03 21:52:00;;;;;;;5.30;1.33;;;;;;;;;;5113223;28;20106;-83
2022/10/03 21:54:41;;;;;;;5.00;1.20;;;;;;;;;;5113622;28;20054;-84
2022/10/03 21:57:19;;;;;;;3.33;1.35;;;;;;;;;;5113453;28;20027;-85
2022/10/03 22:00:07;;;;;;;5.35;1.55;;;;;;;;;;5113448;28;20074;-77
2022/10/03 22:02:38;;;;;;;3.20;1.00;;;;;;;;;;5114210;28;20030;-84
2022/10/03 22:05:15;;;;;;;6.28;1.75;;;;;;;;;;5112173;28;20023;-84
2022/10/03 22:07:43;;;;;;;1.83;0.82;;;;;;;;;;5113481;28;20027;-86
2022/10/03 22:10:17;;;;;;;4.18;1.00;;;;;;;;;;5112674;28;20031;-84
2022/10/03 22:12:47;;;;;;;3.63;0.82;;;;;;;;;;5112480;28;20519;-84
2022/10/03 22:15:20;;;;;;;3.45;0.95;;;;;;;;;;5112188;28;20031;-77
2022/10/03 22:17:50;;;;;;;6.28;1.23;;;;;;;;;;5112521;28;20035;-79
2022/10/03 22:20:18;;;;;;;7.07;1.08;;;;;;;;;;5112339;28;20028;-82
2022/10/03 22:22:53;;;;;;;5.78;1.02;;;;;;;;;;5114348;28;20076;-84
2022/10/03 22:25:32;;;;;;;2.85;0.80;;;;;;;;;;5111829;28;20038;-79
2022/10/03 22:28:14;;;;;;;2.72;1.00;;;;;;;;;;5111684;28;20046;-80
2022/10/03 22:30:46;;;;;;;1.65;0.85;;;;;;;;;;5111427;28;20024;-79
2022/10/03 22:33:12;;;;;;;2.50;1.20;;;;;;;;;;5111748;28;20475;-85
2022/10/03 22:35:48;;;;;;;3.83;1.30;;;;;;;;;;5112585;28;20020;-78
2022/10/03 22:38:15;;;;;;;3.03;0.90;;;;;;;;;;5111484;28;20031;-79
2022/10/03 22:40:41;;;;;;;5.05;1.27;;;;;;;;;;5110890;28;20034;-78
2022/10/03 22:43:09;;;;;;;4.32;1.10;;;;;;;;;;5111136;28;20019;-77
2022/10/03 22:45:39;;;;;;;4.22;1.38;;;;;;;;;;5110819;28;20047;-78
2022/10/03 22:48:09;;;;;;;5.65;1.17;;;;;;;;;;5111179;28;20043;-78
2022/10/03 22:50:40;;;;;;;2.28;1.05;;;;;;;;;;5111601;28;20020;-78
2022/10/03 22:53:07;;;;;;;3.20;1.17;;;;;;;;;;5110914;28;20020;-80
2022/10/03 22:55:33;;;;;;;7.47;1.55;;;;;;;;;;5111429;28;20035;-78
2022/10/03 22:58:01;;;;;;;4.55;0.95;;;;;;;;;;5112189;28;20023;-78
2022/10/03 23:00:29;;;;;;;8.10;1.35;;;;;;;;;;5110775;28;20046;-79
2022/10/03 23:03:03;;;;;;;2.67;1.05;;;;;;;;;;5110539;28;20443;-77
2022/10/03 23:05:39;;;;;;;6.07;1.20;;;;;;;;;;5111455;28;20043;-79
2022/10/03 23:08:08;;;;;;;2.47;0.93;;;;;;;;;;5114713;28;20093;-79
2022/10/03 23:10:41;;;;;;;3.45;0.98;;;;;;;;;;5116145;28;20027;-80
2022/10/03 23:13:17;;;;;;;4.82;1.10;;;;;;;;;;5108095;28;20020;-80
2022/10/03 23:15:44;;;;;;;3.15;1.20;;;;;;;;;;5112120;28;20039;-82
2022/10/03 23:18:20;;;;;;;7.93;1.13;;;;;;;;;;5114022;28;20012;-79
2022/10/03 23:20:53;;;;;;;2.53;0.77;;;;;;;;;;5113607;28;20070;-79
2022/10/03 23:23:39;;;;;;;6.82;1.25;;;;;;;;;;5124047;28;20023;-79
2022/10/03 23:26:24;;;;;;;5.88;1.10;;;;;;;;;;5088214;28;20527;-81
2022/10/03 23:29:13;;;;;;;5.75;1.17;;;;;;;;;;5118217;28;20039;-76
2022/10/03 23:31:54;;;;;;;5.05;1.25;;;;;;;;;;5096323;28;20034;-80
2022/10/03 23:34:46;;;;;;;2.60;0.82;;;;;;;;;;5117509;28;20023;-77
2022/10/03 23:37:12;;;;;;;3.63;0.80;;;;;;;;;;5111424;28;20035;-82
2022/10/03 23:39:53;;;;;;;3.88;1.00;;;;;;;;;;5117479;28;20062;-78
2022/10/03 23:42:20;;;;;;;3.00;0.75;;;;;;;;;;5117573;28;20033;-85
2022/10/03 23:44:50;;;;;;;3.35;0.82;;;;;;;;;;5115736;28;20055;-83
2022/10/03 23:47:18;;;;;;;3.40;0.90;;;;;;;;;;5116549;28;20043;-79
2022/10/03 23:49:46;;;;;;;5.07;1.08;;;;;;;;;;5115522;28;20046;-79
2022/10/03 23:52:15;;;;;;;4.07;1.00;;;;;;;;;;5115198;28;20119;-77
2022/10/03 23:54:42;;;;;;;2.67;1.00;;;;;;;;;;5115006;28;20069;-78
2022/10/03 23:57:08;;;;;;;5.68;0.98;;;;;;;;;;5114874;28;20029;-77
2022/10/03 23:59:36;;;;;;;5.05;1.40;;;;;;;;;;5115463;28;20024;-77
